logo
App data

Assassin's Creed Freedom Cry

Play as Adewale, an ex-slave turned Assassin fighting for freedom with the help of his own Pirate crew.
Store | Hub | SteamDB | Site
Developer: Ubisoft Montreal Publisher: Ubisoft
Genre: Action, Adventure
Languages: English, French, Italian, German, Spanish - Spain, Czech, Danish, Dutch, Finnish, Norwegian, Polish, Portuguese, Portuguese - Brazil, Russian, Swedish
Tags: Action (180), Adventure (160), Assassin (125), Open World (113), Pirates (108), Stealth (92), Singleplayer (74), Parkour (67), Third Person (54), Historical (51), Story Rich (33), Atmospheric (28), RPG (21), Naval (12), Sailing (9), Sci-fi (7), Gore (6), Swordplay (6), Great Soundtrack (6), Masterpiece (6)
Category: Single-player
Release date: Feb 25, 2014
Price: $14.99
Old userscore: 74% Owners: 100,000 .. 200,000
Followers: 20,185
Peak concurrent players yesterday: 16
YouTube stats: 47 views and 2 comments for top 50 videos uploaded last week, 1 new videos uploaded yesterday.
Playtime total: 09:03 (average) 11:08 (median)

Steam Spy is still in beta, so expect major bugs.

Owners data:

Access restricted.

This feature is only available to users with special access rights. Sorry.

If you want to proceed, you need to register or log in first and then back Steam Spy on Patreon. Look for Indie or Pro pledge.

Don't forget to use the same email as on Steam Spy!

Audience in 2 weeks:

Access restricted.

This feature is only available to users with special access rights. Sorry.

If you want to proceed, you need to register or log in first and then back Steam Spy on Patreon. Look for Indie or Pro pledge.

Don't forget to use the same email as on Steam Spy!

Peak daily concurrent players:

CCU data courtesy of SteamDB. Used with permission.

Hourly concurrent players:

Followers over time

Access restricted.

This feature is only available to users with special access rights. Sorry.

If you want to proceed, you need to register or log in first and then back Steam Spy on Patreon. Look for Indie or Pro pledge.

Don't forget to use the same email as on Steam Spy!

Views for top 50 videos on YouTube for this game:

Games similar to this one:

# Game Release date
Price
Score rank
(Userscore / Metascore)
Owners
Players
Playtime (Median)
1 Tap Tap Infinity Jun 26, 2015 FreeN/A (N/A)200,000 .. 500,0000%00:00 (00:00)
2 Concrete Jungle Sep 23, 2015 $6.99N/A (N/A/76%)50,000 .. 100,0000%00:00 (00:00)
3 Anima Gate of Memories Jun 2, 2016 $19.99N/A (N/A)20,000 .. 50,0000%00:00 (00:00)
4 Normality Jun 30, 1996 $2.99N/A (N/A)200,000 .. 500,0000%00:00 (00:00)
5 John Wick Chronicles Feb 9, 2017 $19.99N/A (N/A/57%)20,000 .. 50,0000%00:00 (00:00)
6 POSTAL Redux May 20, 2016 $8.99N/A (N/A/54%)100,000 .. 200,0000%00:00 (00:00)
7 Shadow Complex Remastered May 3, 2016 $14.99N/A (N/A)100,000 .. 200,0000%00:00 (00:00)
8 Turok 2: Seeds of Evil Dec 10, 1998 $19.99N/A (N/A)50,000 .. 100,0000%00:00 (00:00)
9 Alien Attack Jun 21, 2016 $1.99N/A (N/A)20,000 .. 50,0000%00:00 (00:00)
10 Hard Reset Redux Jun 3, 2016 $19.99N/A (N/A/73%)100,000 .. 200,0000%00:00 (00:00)
11 Call of Duty: Modern Warfare Remastered Jul 27, 2017 $39.99N/A (N/A)50,000 .. 100,0000%00:00 (00:00)
12 12 is Better Than 6 Nov 20, 2015 $9.99N/A (N/A/74%)500,000 .. 1,000,0002.78%01:54 (00:38)
13 Battlevoid: Harbinger Feb 24, 2016 $9.99N/A (N/A)100,000 .. 200,0000%00:00 (00:00)
14 Slain: Back from Hell Mar 24, 2016 $3.24N/A (N/A/74%)100,000 .. 200,0000%00:00 (00:00)
15 War of Beach Oct 15, 2015 FreeN/A (N/A)100,000 .. 200,0000%00:00 (00:00)
16 Police Tactics: Imperio Sep 7, 2016 $24.99N/A (N/A)0 .. 20,0000%00:00 (00:00)
17 Epistory - Typing Chronicles Mar 30, 2016 $5.24N/A (N/A/74%)200,000 .. 500,0000%00:00 (00:00)
18 Warlock - Master of the Arcane May 8, 2012 $24.99N/A (N/A/71%)500,000 .. 1,000,0000%00:00 (00:00)
19 Jagged Alliance - Back in Action Feb 8, 2012 $19.99N/A (N/A/62%)200,000 .. 500,0000%00:00 (00:00)
20 Serious Sam 2 Oct 11, 2005 $9.99N/A (N/A/74%)500,000 .. 1,000,0000%00:00 (00:00)
21 Majesty 2 Collection Apr 19, 2011 N/AN/A (N/A)200,000 .. 500,0000%00:00 (00:00)
22 Omerta - City of Gangsters Jan 31, 2013 $14.99N/A (N/A)200,000 .. 500,0000%00:00 (00:00)
23 DETOUR May 16, 2011 $1.99N/A (N/A)200,000 .. 500,0000%00:00 (00:00)
24 Blades of Time Apr 20, 2012 $9.99N/A (N/A/63%)100,000 .. 200,0000%00:00 (00:00)
25 Section 8: Prejudice May 4, 2011 $9.99N/A (N/A/77%)200,000 .. 500,0000%00:00 (00:00)
26 Viking: Battle for Asgard Oct 17, 2012 $14.99N/A (N/A)1,000,000 .. 2,000,0000%00:00 (00:00)
27 Frozen Synapse May 26, 2011 $24.99N/A (N/A/85%)500,000 .. 1,000,0000%00:00 (00:00)
28 Kung Fu Strike - The Warrior's Rise Jul 24, 2012 $9.99N/A (N/A)100,000 .. 200,0000%00:00 (00:00)
29 Renegade Ops Oct 26, 2011 $3.75N/A (N/A/76%)500,000 .. 1,000,0000%00:00 (00:00)
30 Aliens: Colonial Marines Collection $29.99N/A (N/A/45%)200,000 .. 500,0000%00:00 (00:00)
31 Memoir '44 Online Oct 12, 2011 FreeN/A (N/A)200,000 .. 500,0000%00:00 (00:00)
32 Red Faction: Armageddon Jun 6, 2011 $19.99N/A (N/A/75%)1,000,000 .. 2,000,0000%00:00 (00:00)
33 Sins of a Solar Empire: Trinity Nov 16, 2011 $19.99N/A (N/A/87%)200,000 .. 500,0000%00:00 (00:00)
34 The First Templar - Steam Special Edition May 12, 2011 $9.99N/A (N/A/57%)100,000 .. 200,0000%00:00 (00:00)
35 Age of Steel: Recharge Jan 6, 2016 $6.99N/A (N/A)100,000 .. 200,0000%00:00 (00:00)
36 Survival Zombies The Inverted Evolution May 8, 2017 $4.99N/A (N/A)50,000 .. 100,0000%00:00 (00:00)
37 Deadlight: Director's Cut Jun 21, 2016 $11.99N/A (N/A)50,000 .. 100,0000%00:00 (00:00)
38 Diluvion: Resubmerged Feb 2, 2017 $2.99N/A (N/A/66%)100,000 .. 200,0000%00:00 (00:00)
39 Seraph Sep 20, 2016 $12.99N/A (N/A/80%)50,000 .. 100,0000%00:00 (00:00)
40 Spell Fighter VR Mar 1, 2016 FreeN/A (N/A)100,000 .. 200,0000%00:00 (00:00)
41 DEAD RISING Sep 12, 2016 $19.99N/A (N/A)200,000 .. 500,0009.09%01:38 (00:32)
42 Zombillie Apr 29, 2016 $4.99N/A (N/A)50,000 .. 100,0000%00:00 (00:00)
43 Hitman GO: Definitive Edition Feb 23, 2016 $1.59N/A (N/A/72%)100,000 .. 200,0000%00:00 (00:00)
44 Song of the Deep Jul 12, 2016 $14.99N/A (N/A/71%)50,000 .. 100,0000%00:00 (00:00)
45 Mushroom Wars Apr 7, 2016 $9.99N/A (N/A/80%)50,000 .. 100,0000%00:00 (00:00)
46 Vanquish May 25, 2017 $19.99N/A (N/A/78%)200,000 .. 500,0000%00:00 (00:00)
47 GUILTY GEAR 2 -OVERTURE- Mar 31, 2016 $19.99N/A (N/A)20,000 .. 50,0000%00:00 (00:00)
48 TY the Tasmanian Tiger Dec 12, 2016 $14.99N/A (N/A)50,000 .. 100,0000%00:00 (00:00)
49 Dead6hot Feb 1, 2016 $0.99N/A (N/A)200,000 .. 500,0000%00:00 (00:00)
50 Pang Adventures Apr 18, 2016 $9.99N/A (N/A)20,000 .. 50,0000%00:00 (00:00)
51 One Troll Army May 20, 2016 FreeN/A (N/A)200,000 .. 500,0000%00:00 (00:00)
52 Dust: An Elysian Tail May 24, 2013 $14.99N/A (N/A)1,000,000 .. 2,000,0000%00:00 (00:00)
53 Tomb Raider II Nov 28, 2012 $0.97N/A (N/A)500,000 .. 1,000,0000%00:00 (00:00)
54 Sid Meier’s Ace Patrol: Pacific Skies Nov 5, 2013 $4.99N/A (N/A)500,000 .. 1,000,0000%00:00 (00:00)
55 Tomb Raider III Nov 28, 2012 $0.97N/A (N/A)500,000 .. 1,000,0000%00:00 (00:00)
56 MASSIVE CHALICE Jun 1, 2015 $19.99N/A (N/A/73%)100,000 .. 200,0000%00:00 (00:00)
57 Ironclad Tactics Sep 18, 2013 $14.99N/A (N/A/69%)50,000 .. 100,0000%00:00 (00:00)
58 Legends of Eisenwald Jul 2, 2015 $3.99N/A (N/A/71%)100,000 .. 200,0000%00:00 (00:00)
59 Kingdom Wars Apr 1, 2013 FreeN/A (N/A)500,000 .. 1,000,0000%00:00 (00:00)
60 Megabyte Punch Oct 15, 2013 $14.99N/A (N/A/69%)200,000 .. 500,0000%00:00 (00:00)
61 God Mode Apr 19, 2013 N/AN/A (N/A/58%)200,000 .. 500,0000%00:00 (00:00)
62 Scribblenauts Unmasked: A DC Comics Adventure Sep 24, 2013 $19.99N/A (N/A/68%)200,000 .. 500,0000%00:00 (00:00)
63 Fallen Enchantress: Legendary Heroes May 22, 2013 $24.99N/A (N/A/80%)200,000 .. 500,0000%00:00 (00:00)
64 Air Conflicts: Pacific Carriers Sep 21, 2012 $9.99N/A (N/A)20,000 .. 50,0000%00:00 (00:00)
65 War for the Overworld Apr 2, 2015 $29.99N/A (N/A)500,000 .. 1,000,0000%00:00 (00:00)
66 StarDrive Apr 26, 2013 $5.39N/A (N/A/61%)200,000 .. 500,0000%00:00 (00:00)
67 Eador. Masters of the Broken World Apr 19, 2013 $19.99N/A (N/A/74%)500,000 .. 1,000,0000%00:00 (00:00)
68 Xenonauts Jun 16, 2014 $24.99N/A (N/A/77%)200,000 .. 500,0000%00:00 (00:00)
69 Caesar 3 May 30, 1999 $5.99N/A (N/A)200,000 .. 500,0000%00:00 (00:00)
70 Asura: Vengeance Edition Apr 13, 2017 $9.99N/A (N/A)20,000 .. 50,0000%00:00 (00:00)
71 Mages of Mystralia May 18, 2017 $19.99N/A (N/A/74%)50,000 .. 100,0000%00:00 (00:00)
72 Wonder Boy: The Dragon's Trap Jun 8, 2017 $19.99N/A (N/A)50,000 .. 100,0000%00:00 (00:00)
73 Dead Rising 4 Mar 14, 2017 $29.99N/A (N/A/74%)200,000 .. 500,0000%00:00 (00:00)
74 Serious Sam Fusion 2017 (beta) tba - Add to your Wishlist! $14.99N/A (N/A)0 .. 20,0000%00:00 (00:00)
75 Sudden Strike Gold May 22, 2017 $5.99N/A (N/A)50,000 .. 100,0000%00:00 (00:00)
76 Roll'd Apr 14, 2016 $0.99N/A (N/A)20,000 .. 50,0000%00:00 (00:00)
77 Dies irae ~Amantes amentes~ Jun 2, 2017 FreeN/A (N/A)50,000 .. 100,0000%00:00 (00:00)
78 Predynastic Egypt Oct 10, 2016 $9.99N/A (N/A)20,000 .. 50,0000%00:00 (00:00)
79 Batman: Arkham Origins Blackgate - Deluxe Edition Apr 1, 2014 $19.99N/A (N/A)200,000 .. 500,0000%00:00 (00:00)
80 Rebuild 3: Gangs of Deadsville May 29, 2015 $14.99N/A (N/A/75%)100,000 .. 200,0000%00:00 (00:00)
81 Industry Giant 2 Aug 14, 2015 $9.99N/A (N/A)100,000 .. 200,0000%00:00 (00:00)
82 Blood Knights Nov 13, 2013 $9.99N/A (N/A)50,000 .. 100,0000%00:00 (00:00)
83 Imperial Glory May 15, 2005 $4.99N/A (N/A/69%)100,000 .. 200,0000%00:00 (00:00)
84 Savant - Ascent Dec 4, 2013 $1.99N/A (N/A)200,000 .. 500,0000%00:00 (00:00)
85 Creeper World 3: Arc Eternal Mar 27, 2014 $14.99N/A (N/A)200,000 .. 500,0000%00:00 (00:00)
86 The Last Tinker: City of Colors May 12, 2014 $9.99N/A (N/A/72%)100,000 .. 200,0000%00:00 (00:00)
87 Castlevania: Lords of Shadow – Mirror of Fate HD Mar 27, 2014 $14.99N/A (N/A)100,000 .. 200,00010%05:18 (01:46)
88 Assassin’s Creed Liberation HD Jan 15, 2014 $19.99N/A (N/A)100,000 .. 200,0000%00:00 (00:00)
89 House of the Dying Sun Nov 1, 2016 $19.99N/A (N/A/76%)50,000 .. 100,0000%00:00 (00:00)
90 The Red Solstice Jul 9, 2015 $9.99N/A (N/A/74%)1,000,000 .. 2,000,0000.76%01:10 (00:23)
91 Anomaly Korea Nov 6, 2013 $4.99N/A (N/A)100,000 .. 200,0000%00:00 (00:00)
92 Worlds of Magic Mar 19, 2015 $24.99N/A (N/A/52%)20,000 .. 50,0000%00:00 (00:00)
93 WARMACHINE: Tactics Nov 20, 2014 $19.99N/A (N/A)100,000 .. 200,0000%00:00 (00:00)
94 Breach & Clear Mar 21, 2014 $14.99N/A (N/A)200,000 .. 500,0000%00:00 (00:00)
95 Duskers May 18, 2016 $19.99N/A (N/A/83%)50,000 .. 100,0000%00:00 (00:00)
96 Act of Aggression - Reboot Edition Sep 2, 2015 $29.99N/A (N/A/71%)100,000 .. 200,0000%00:00 (00:00)
97 Grey Goo Jan 23, 2015 $29.99N/A (N/A/77%)200,000 .. 500,0000%00:00 (00:00)
98 Convoy Apr 21, 2015 $14.99N/A (N/A/72%)100,000 .. 200,0000%00:00 (00:00)
99 Commando Jack Aug 22, 2014 $7.99N/A (N/A)200,000 .. 500,0000%00:00 (00:00)
100 Odallus: The Dark Call Jul 15, 2015 $9.99N/A (N/A/80%)100,000 .. 200,0000%00:00 (00:00)
101 Battle Islands Aug 6, 2014 FreeN/A (N/A)500,000 .. 1,000,0000%00:00 (00:00)
102 Ascension: Deckbuilding Game Dec 16, 2014 $3.99N/A (N/A)20,000 .. 50,0000%00:00 (00:00)
103 Geometry Wars 3: Dimensions Evolved Nov 25, 2014 $14.99N/A (N/A)100,000 .. 200,0000%00:00 (00:00)
104 UNLOVED Sep 29, 2016 $1.24N/A (N/A)50,000 .. 100,0000%00:00 (00:00)
105 Oddworld: New 'n' Tasty Feb 25, 2015 $19.99N/A (N/A/87%)200,000 .. 500,0000%00:00 (00:00)
106 Might & Magic Heroes VII Sep 29, 2015 $29.99N/A (N/A)200,000 .. 500,0000%00:00 (00:00)
107 Battle of Empires : 1914-1918 Jul 22, 2015 $8.99N/A (N/A)50,000 .. 100,0000%00:00 (00:00)
108 Incoming Forces Sep 24, 2002 $2.99N/A (N/A/67%)200,000 .. 500,0000%00:00 (00:00)
109 The Original Strife: Veteran Edition May 31, 1996 $9.99N/A (N/A)50,000 .. 100,0000%00:00 (00:00)
110 Braveland Mar 17, 2014 $6.99N/A (N/A)5,000,000 .. 10,000,0000%00:00 (00:00)
111 Space Hulk: Ascension Nov 12, 2014 N/AN/A (N/A/72%)100,000 .. 200,0000%00:00 (00:00)
112 Faces of War Sep 8, 2006 $4.99N/A (N/A/67%)20,000 .. 50,0000%00:00 (00:00)
113 The Longest Journey Nov 17, 2000 $9.99N/A (N/A/91%)100,000 .. 200,0000%00:00 (00:00)
114 Red Faction Sep 18, 2001 $9.99N/A (N/A/78%)200,000 .. 500,0000%00:00 (00:00)
115 Just Cause Sep 22, 2006 $0.97N/A (N/A/75%)1,000,000 .. 2,000,0000%00:00 (00:00)
116 Hunted: The Demon’s Forge May 30, 2011 $4.99N/A (N/A/61%)100,000 .. 200,0000%00:00 (00:00)
117 X-Blades Feb 10, 2009 $9.99N/A (N/A/54%)500,000 .. 1,000,0000.93%05:33 (01:51)
118 Knights of Honor May 10, 2005 $9.99N/A (N/A/77%)100,000 .. 200,00016.67%00:01 (00:00)
119 Railroad Tycoon 3 Oct 23, 2003 $9.99N/A (N/A/80%)200,000 .. 500,0000%00:00 (00:00)
120 Operation Flashpoint: Red River N/AN/A (N/A/67%)0 .. 20,0000%00:00 (00:00)
121 Penguins Arena: Sedna's World Dec 18, 2008 $5.99N/A (N/A)100,000 .. 200,0000%00:00 (00:00)
122 Lost Planet 2 Oct 15, 2010 $19.99N/A (N/A/63%)100,000 .. 200,0000%00:00 (00:00)
123 Tom Clancy's Rainbow Six Vegas Dec 12, 2006 $9.99N/A (N/A/85%)100,000 .. 200,0000%00:00 (00:00)
124 Command & Conquer 4: Tiberian Twilight Mar 16, 2010 $19.99N/A (N/A/64%)200,000 .. 500,0000%00:00 (00:00)
125 Brothers in Arms: Hell's Highway Oct 8, 2008 $9.99N/A (N/A/79%)100,000 .. 200,0000%00:00 (00:00)
126 Red Orchestra: Ostfront 41-45 Mar 14, 2006 $4.99N/A (N/A/81%)500,000 .. 1,000,0000%00:00 (00:00)
127 Oddworld: Munch's Oddysee Dec 20, 2010 $4.99N/A (N/A)200,000 .. 500,0000%00:00 (00:00)
128 Cossacks: Back to War Nov 1, 2002 $4.99N/A (N/A/60%)200,000 .. 500,0000%00:00 (00:00)
129 Oddworld: Stranger's Wrath HD Dec 20, 2010 $9.99N/A (N/A)200,000 .. 500,0000%00:00 (00:00)
130 Marble Age Mar 4, 2015 $5.99N/A (N/A)50,000 .. 100,0000%00:00 (00:00)
131 The Warlock of Firetop Mountain Aug 30, 2016 $19.99N/A (N/A/70%)50,000 .. 100,0000%00:00 (00:00)
132 Train Valley Sep 16, 2015 $9.99N/A (N/A/69%)200,000 .. 500,0000%00:00 (00:00)
133 Shadow Warrior 2 Oct 13, 2016 $39.99N/A (N/A/78%)500,000 .. 1,000,0000%00:00 (00:00)
134 The Deadly Tower of Monsters Jan 19, 2016 $14.99N/A (N/A/73%)50,000 .. 100,0000%00:00 (00:00)
135 WASTED Jun 7, 2016 $12.99N/A (N/A/68%)100,000 .. 200,0000%00:00 (00:00)
136 Uncanny Valley Apr 23, 2015 $9.99N/A (N/A/67%)100,000 .. 200,0000%00:00 (00:00)
137 Oceanhorn: Monster of Uncharted Seas Mar 17, 2015 $14.99N/A (N/A/74%)50,000 .. 100,0000%00:00 (00:00)
138 Toukiden: Kiwami Jun 25, 2015 $59.99N/A (N/A)20,000 .. 50,0000%00:00 (00:00)
139 Zombie Kill of the Week - Reborn Mar 13, 2015 $6.99N/A (N/A)50,000 .. 100,0000%00:00 (00:00)
140 The Long Journey Home May 30, 2017 $29.99N/A (N/A/68%)50,000 .. 100,0000%00:00 (00:00)
141 Particula Feb 2, 2015 $0.99N/A (N/A)500,000 .. 1,000,0004.55%04:58 (03:15)
142 The Magic Circle Jul 9, 2015 $19.99N/A (N/A/79%)100,000 .. 200,0000%00:00 (00:00)
143 Sun Blast: Star Fighter Apr 2, 2015 $1.99N/A (N/A)100,000 .. 200,0000%00:00 (00:00)
144 Halo: Spartan Strike Dec 12, 2014 $2.99N/A (N/A)100,000 .. 200,0000%00:00 (00:00)
145 SHOGUN: Total War - Collection Jun 13, 2000 $9.99N/A (N/A)50,000 .. 100,0000%00:00 (00:00)
146 Impossible Creatures Steam Edition Jan 7, 2003 $9.99N/A (N/A/72%)100,000 .. 200,0000%00:00 (00:00)

Tags over time:

Access restricted.

This feature is only available to users with special access rights. Sorry.

If you want to proceed, you need to register or log in first and then back Steam Spy on Patreon. Look for Indie or Pro pledge.

Don't forget to use the same email as on Steam Spy!

Owners of this game also own:

Access restricted.

This feature is only available to users with special access rights. Sorry.

If you want to proceed, you need to register or log in first and then back Steam Spy on Patreon. Look for Indie or Pro pledge.

Don't forget to use the same email as on Steam Spy!

Playtime distribution:

Access restricted.

This feature is only available to users with special access rights. Sorry.

If you want to proceed, you need to register or log in first and then back Steam Spy on Patreon. Look for Indie or Pro pledge.

Don't forget to use the same email as on Steam Spy!

Playtime (2 weeks):

Access restricted.

This feature is only available to users with special access rights. Sorry.

If you want to proceed, you need to register or log in first and then back Steam Spy on Patreon. Look for Indie or Pro pledge.

Don't forget to use the same email as on Steam Spy!

User reviews:

Login required.

Please register or log in to see this information.